createdAt,value
2022-10-11T06:14:59.343Z,9.30
2022-10-11T06:17:37.082Z,7.30
2022-10-11T06:20:14.674Z,8.13
2022-10-11T06:22:52.141Z,10.07
2022-10-11T06:25:28.982Z,9.37
2022-10-11T06:28:06.111Z,7.87
2022-10-11T06:30:45.804Z,9.10
2022-10-11T06:33:24.132Z,9.63
2022-10-11T06:36:05.385Z,12.00
2022-10-11T06:38:45.251Z,5.97
2022-10-11T06:41:24.980Z,10.37
2022-10-11T06:44:02.162Z,6.50
2022-10-11T06:46:41.873Z,11.80
2022-10-11T06:49:23.103Z,9.53
2022-10-11T06:52:00.458Z,6.83
2022-10-11T06:54:42.520Z,13.93
2022-10-11T06:57:21.451Z,7.73
2022-10-11T06:59:58.679Z,14.80
2022-10-11T07:02:38.193Z,9.80
2022-10-11T07:05:15.273Z,10.77
2022-10-11T07:07:52.119Z,8.27
2022-10-11T07:10:29.311Z,11.40
2022-10-11T07:13:06.169Z,7.97
2022-10-11T07:15:44.108Z,6.30
2022-10-11T07:18:23.700Z,8.03
2022-10-11T07:21:00.983Z,6.37
2022-10-11T07:23:38.209Z,10.60
2022-10-11T07:26:16.129Z,18.00
2022-10-11T07:28:53.573Z,9.70
2022-10-11T07:31:31.475Z,9.30
2022-10-11T07:34:11.979Z,12.30
2022-10-11T07:36:49.207Z,7.80
2022-10-11T07:39:26.091Z,12.30
2022-10-11T07:42:03.395Z,14.23
2022-10-11T07:44:40.228Z,8.53
2022-10-11T07:47:17.540Z,10.60
2022-10-11T07:49:56.962Z,12.37
2022-10-11T07:52:34.151Z,12.07
2022-10-11T07:55:12.793Z,8.03
2022-10-11T07:57:49.932Z,11.80
2022-10-11T08:00:26.922Z,7.67
2022-10-11T08:03:07.030Z,11.53
2022-10-11T08:05:46.531Z,14.07
2022-10-11T08:08:23.703Z,8.47
2022-10-11T08:11:01.181Z,10.40
2022-10-11T08:13:38.931Z,13.13
2022-10-11T08:16:17.318Z,10.37
2022-10-11T08:18:54.772Z,8.03
2022-10-11T08:21:35.136Z,15.57
2022-10-11T08:24:14.061Z,8.10
2022-10-11T08:26:51.615Z,8.13
2022-10-11T08:29:28.729Z,11.10
2022-10-11T08:32:05.847Z,12.60
2022-10-11T08:34:43.011Z,10.40
2022-10-11T08:37:22.453Z,6.10
2022-10-11T08:39:59.811Z,11.47
2022-10-11T08:42:43.299Z,10.67
2022-10-11T08:45:31.841Z,11.95
2022-10-11T08:48:18.249Z,9.77
2022-10-11T08:50:57.742Z,11.07
2022-10-11T08:53:49.690Z,5.47
2022-10-11T08:56:29.663Z,9.93
2022-10-11T08:59:14.784Z,4.47
2022-10-11T09:02:00.191Z,5.50
2022-10-11T09:04:37.256Z,9.48
2022-10-11T09:07:28.904Z,6.85
2022-10-11T09:10:37.763Z,7.88
2022-10-11T09:13:36.083Z,6.88
2022-10-11T09:16:27.284Z,5.97
2022-10-11T09:19:35.998Z,6.60
2022-10-11T09:22:26.829Z,7.60
2022-10-11T09:25:28.639Z,4.88
2022-10-11T09:28:29.173Z,5.30
2022-10-11T09:31:06.588Z,4.25
2022-10-11T09:33:49.609Z,8.00
2022-10-11T09:39:21.798Z,7.97
2022-10-11T09:42:05.403Z,8.13
2022-10-11T09:44:48.738Z,7.75
2022-10-11T09:47:29.099Z,6.85
2022-10-11T09:50:16.021Z,6.40
2022-10-11T09:52:54.684Z,7.72
2022-10-11T09:55:41.627Z,7.95
2022-10-11T09:58:33.737Z,11.77
2022-10-11T10:01:14.130Z,8.27
2022-10-11T10:03:51.271Z,11.13
2022-10-11T10:06:30.370Z,6.72
2022-10-11T10:09:30.724Z,8.25
2022-10-11T10:12:16.877Z,6.90
2022-10-11T10:15:10.211Z,11.50
2022-10-11T10:17:53.009Z,10.93
2022-10-11T10:20:34.717Z,8.75
2022-10-11T10:23:23.066Z,8.55
2022-10-11T10:26:16.638Z,9.18
2022-10-11T10:29:05.769Z,10.32
2022-10-11T10:32:14.645Z,6.85
2022-10-11T10:35:03.664Z,8.68
2022-10-11T10:37:46.746Z,10.98
2022-10-11T10:40:29.398Z,7.15
2022-10-11T10:43:06.824Z,10.63
2022-10-11T10:46:19.687Z,9.18
2022-10-11T10:52:54.248Z,9.50
2022-10-11T10:55:40.448Z,3.97
2022-10-11T10:58:41.037Z,10.75
2022-10-11T11:01:23.860Z,8.30
2022-10-11T11:04:19.202Z,8.05
2022-10-11T11:07:01.310Z,8.90
2022-10-11T11:09:50.686Z,6.88
2022-10-11T11:12:46.967Z,17.48
2022-10-11T11:15:33.125Z,7.75
2022-10-11T11:18:31.710Z,9.90
2022-10-11T11:21:30.398Z,9.23
2022-10-11T11:24:17.202Z,7.60
2022-10-11T11:27:02.426Z,9.25
2022-10-11T11:29:55.521Z,6.07
2022-10-11T11:32:45.563Z,5.78
2022-10-11T11:35:32.548Z,7.75
2022-10-11T11:38:20.047Z,6.90
2022-10-11T11:41:02.824Z,5.80
2022-10-11T11:43:49.027Z,6.63
2022-10-11T11:46:30.867Z,8.05
2022-10-11T11:49:18.808Z,9.85
2022-10-11T11:51:57.157Z,15.52
2022-10-11T11:54:50.719Z,14.60
2022-10-11T11:57:43.212Z,12.40
2022-10-11T12:00:24.367Z,9.15
2022-10-11T12:03:05.299Z,8.35
2022-10-11T12:06:02.831Z,5.05
2022-10-11T12:08:41.169Z,6.15
2022-10-11T12:11:35.272Z,9.93
2022-10-11T12:14:38.320Z,7.00
2022-10-11T12:17:23.109Z,7.28
2022-10-11T12:20:27.688Z,9.70
2022-10-11T12:23:08.199Z,6.63
2022-10-11T12:25:47.679Z,8.60
2022-10-11T12:29:16.189Z,5.70
2022-10-11T12:32:14.488Z,5.35
2022-10-11T12:34:51.473Z,11.43
2022-10-11T12:37:54.399Z,6.70
2022-10-11T12:40:42.323Z,10.13
2022-10-11T12:43:56.480Z,9.90
2022-10-11T12:47:20.610Z,6.32
2022-10-11T12:50:22.103Z,14.07
2022-10-11T12:53:09.239Z,7.13
2022-10-11T12:55:56.093Z,6.20
2022-10-11T12:58:41.960Z,11.23
2022-10-11T13:01:25.719Z,9.63
2022-10-11T13:04:07.862Z,7.07
2022-10-11T13:06:54.010Z,6.80
2022-10-11T13:09:34.493Z,10.43
2022-10-11T13:12:18.159Z,13.63
2022-10-11T13:17:48.750Z,11.38
2022-10-11T13:20:31.599Z,6.18
2022-10-11T13:23:25.800Z,7.80
2022-10-11T13:26:05.127Z,5.15
2022-10-11T13:28:43.256Z,9.18
2022-10-11T13:31:20.518Z,7.38
2022-10-11T13:34:01.726Z,6.85
2022-10-11T13:36:38.550Z,7.10
2022-10-11T13:39:32.233Z,7.72
2022-10-11T13:42:14.120Z,5.70
2022-10-11T13:44:51.881Z,7.35
2022-10-11T13:47:33.459Z,10.55
2022-10-11T13:50:24.722Z,9.35
2022-10-11T13:53:04.322Z,9.00
2022-10-11T13:55:55.386Z,10.63
2022-10-11T13:58:41.030Z,13.57
2022-10-11T14:01:25.796Z,7.00
2022-10-11T14:04:06.123Z,10.20
2022-10-11T14:06:51.731Z,6.05
2022-10-11T14:09:33.686Z,9.60
2022-10-11T14:12:40.131Z,10.43
2022-10-11T14:15:31.961Z,7.55
2022-10-11T14:18:43.502Z,10.02
2022-10-11T14:21:51.853Z,7.03
2022-10-11T14:24:29.962Z,10.48
2022-10-11T14:27:11.581Z,10.57
2022-10-11T14:30:23.445Z,9.23
2022-10-11T14:32:54.203Z,8.20
2022-10-11T14:35:39.616Z,7.88
2022-10-11T14:38:17.557Z,8.40
2022-10-11T14:40:56.009Z,7.55
2022-10-11T14:43:33.607Z,8.80
2022-10-11T14:46:23.115Z,6.78
2022-10-11T14:49:01.141Z,7.10
2022-10-11T14:51:39.552Z,5.93
2022-10-11T14:54:19.244Z,9.45
2022-10-11T14:56:59.511Z,9.70
2022-10-11T14:59:40.293Z,9.07
2022-10-11T15:02:22.153Z,7.55
2022-10-11T15:04:59.282Z,6.55
2022-10-11T15:07:36.621Z,5.80
2022-10-11T15:10:25.084Z,5.50
2022-10-11T15:13:02.571Z,7.03
2022-10-11T15:15:42.039Z,6.88
2022-10-11T15:18:22.128Z,6.00
2022-10-11T15:20:59.470Z,4.60
2022-10-11T15:23:38.028Z,10.70
2022-10-11T15:26:19.087Z,7.28
2022-10-11T15:28:58.088Z,10.90
2022-10-11T15:31:35.019Z,7.93
2022-10-11T15:34:14.941Z,5.97
2022-10-11T15:36:52.407Z,11.17
2022-10-11T15:39:34.050Z,8.87
2022-10-11T15:42:11.147Z,7.47
2022-10-11T15:44:48.544Z,10.30
2022-10-11T15:47:25.339Z,7.97
2022-10-11T15:50:05.058Z,6.00
2022-10-11T15:52:41.978Z,9.33
2022-10-11T15:55:19.490Z,10.13
2022-10-11T15:57:56.349Z,10.10
2022-10-11T16:00:34.189Z,8.43
2022-10-11T16:03:11.399Z,9.03
2022-10-11T16:05:52.253Z,8.53
2022-10-11T16:08:29.559Z,9.30
2022-10-11T16:11:08.440Z,11.20
2022-10-11T16:13:45.505Z,14.30
2022-10-11T16:16:22.640Z,11.70
2022-10-11T16:18:59.520Z,8.80
2022-10-11T16:21:39.436Z,15.13
2022-10-11T16:24:16.359Z,9.43
2022-10-11T16:26:53.552Z,13.40
2022-10-11T16:29:30.399Z,13.83
2022-10-11T16:32:08.820Z,12.03
2022-10-11T16:34:45.999Z,10.07
2022-10-11T16:37:26.334Z,7.67
2022-10-11T16:40:03.239Z,11.10
2022-10-11T16:42:42.546Z,7.73
2022-10-11T16:45:20.307Z,12.17
2022-10-11T16:47:57.657Z,12.93
2022-10-11T16:50:39.269Z,9.73
2022-10-11T16:53:22.109Z,11.07
2022-10-11T16:56:00.193Z,16.90
2022-10-11T16:58:38.905Z,16.90
2022-10-11T17:01:17.692Z,16.17
2022-10-11T17:03:57.664Z,12.43
2022-10-11T17:06:35.599Z,10.47
2022-10-11T17:09:18.067Z,11.27
2022-10-11T17:11:56.488Z,14.27
2022-10-11T17:14:34.137Z,13.73
2022-10-11T17:17:33.346Z,17.40
2022-10-11T17:20:12.317Z,14.13
2022-10-11T17:22:53.685Z,14.67
2022-10-11T17:25:34.041Z,13.00
2022-10-11T17:28:12.176Z,12.33
2022-10-11T17:31:00.288Z,13.83
2022-10-11T17:33:38.002Z,15.47
2022-10-11T17:36:24.181Z,12.03
2022-10-11T17:39:03.971Z,12.30
2022-10-11T17:41:44.376Z,20.37
2022-10-11T17:44:22.427Z,14.80
2022-10-11T17:47:00.674Z,18.87
2022-10-11T17:49:37.491Z,21.47
2022-10-11T17:52:14.721Z,18.37
2022-10-11T17:54:51.574Z,19.73
2022-10-11T17:57:31.878Z,14.53
2022-10-11T18:00:11.444Z,18.93
2022-10-11T18:02:50.523Z,12.37
2022-10-11T18:05:27.730Z,14.00
2022-10-11T18:08:05.638Z,19.10
2022-10-11T18:10:47.341Z,19.53
2022-10-11T18:13:28.348Z,15.32
2022-10-11T18:16:07.891Z,14.00
2022-10-11T18:18:46.988Z,16.13
2022-10-11T18:21:24.298Z,14.63
2022-10-11T18:24:03.419Z,17.50
2022-10-11T18:26:41.617Z,12.57
2022-10-11T18:29:21.446Z,14.17
2022-10-11T18:31:58.666Z,16.17
2022-10-11T18:34:39.277Z,12.37
2022-10-11T18:37:16.826Z,15.30
2022-10-11T18:39:55.026Z,15.43
2022-10-11T18:42:32.036Z,17.13
2022-10-11T18:45:13.917Z,15.37
2022-10-11T18:47:56.822Z,13.27
2022-10-11T18:50:37.596Z,14.57
2022-10-11T18:53:17.066Z,17.47
2022-10-11T18:55:54.883Z,13.13
2022-10-11T18:58:34.155Z,14.70
2022-10-11T19:01:18.659Z,14.77
2022-10-11T19:03:59.970Z,17.97
2022-10-11T19:06:41.977Z,12.43
2022-10-11T19:09:22.696Z,16.43
2022-10-11T19:12:01.397Z,19.97
2022-10-11T19:14:39.454Z,17.73
2022-10-11T19:17:23.338Z,20.33
2022-10-11T19:20:00.725Z,15.35
2022-10-11T19:22:38.008Z,18.47
2022-10-11T19:25:15.304Z,18.57
2022-10-11T19:27:53.125Z,17.33
2022-10-11T19:30:32.247Z,22.50
2022-10-11T19:33:13.061Z,13.03
2022-10-11T19:35:59.556Z,16.50
2022-10-11T19:38:38.998Z,17.53
2022-10-11T19:41:21.694Z,15.70
2022-10-11T19:44:00.956Z,13.60
2022-10-11T19:46:51.044Z,16.83
2022-10-11T19:49:32.121Z,10.27
